createdAt,value
2019-01-21T00:00:50.947Z,1010.80
2019-01-21T00:01:50.924Z,1010.85
2019-01-21T00:02:50.903Z,1010.85
2019-01-21T00:03:50.880Z,1010.86
2019-01-21T00:04:50.913Z,1010.86
2019-01-21T00:05:50.897Z,1010.87
2019-01-21T00:06:51.216Z,1010.83
2019-01-21T00:07:50.853Z,1010.86
2019-01-21T00:08:50.829Z,1010.83
2019-01-21T00:09:50.813Z,1010.84
2019-01-21T00:10:50.844Z,1010.88
2019-01-21T00:11:50.799Z,1010.86
2019-01-21T00:12:50.798Z,1010.87
2019-01-21T00:13:50.776Z,1010.86
2019-01-21T00:14:50.767Z,1010.88
2019-01-21T00:15:50.878Z,1010.88
2019-01-21T00:16:50.740Z,1010.90
2019-01-21T00:17:50.783Z,1010.89
2019-01-21T00:18:50.766Z,1010.90
2019-01-21T00:19:50.744Z,1010.92
2019-01-21T00:20:50.790Z,1010.94
2019-01-21T00:21:50.730Z,1010.93
2019-01-21T00:22:50.704Z,1010.94
2019-01-21T00:23:50.743Z,1010.95
2019-01-21T00:24:50.695Z,1010.95
2019-01-21T00:25:50.749Z,1010.91
2019-01-21T00:26:50.663Z,1010.94
2019-01-21T00:27:50.629Z,1010.91
2019-01-21T00:28:50.612Z,1010.90
2019-01-21T00:29:50.598Z,1010.90
2019-01-21T00:30:50.614Z,1010.89
2019-01-21T00:31:50.573Z,1010.92
2019-01-21T00:32:50.604Z,1010.89
2019-01-21T00:33:50.554Z,1010.91
2019-01-21T00:34:50.547Z,1010.91
2019-01-21T00:35:50.767Z,1010.92
2019-01-21T00:36:50.526Z,1010.92
2019-01-21T00:37:50.515Z,1010.91
2019-01-21T00:38:50.504Z,1010.91
2019-01-21T00:39:50.486Z,1010.95
2019-01-21T00:40:50.501Z,1010.96
2019-01-21T00:41:50.485Z,1010.97
2019-01-21T00:42:50.453Z,1011.01
2019-01-21T00:43:50.469Z,1011.01
2019-01-21T00:44:50.459Z,1010.99
2019-01-21T00:45:50.497Z,1011.02
2019-01-21T00:46:50.411Z,1011.00
2019-01-21T00:47:50.500Z,1011.04
2019-01-21T00:48:50.385Z,1011.02
2019-01-21T00:49:50.376Z,1011.05
2019-01-21T00:50:50.387Z,1011.01
2019-01-21T00:51:50.437Z,1011.02
2019-01-21T00:52:50.347Z,1010.98
2019-01-21T00:53:50.354Z,1010.99
2019-01-21T00:54:51.131Z,1010.99
2019-01-21T00:55:50.348Z,1011.04
2019-01-21T00:56:50.306Z,1011.01
2019-01-21T00:57:50.309Z,1011.00
2019-01-21T00:58:50.792Z,1010.98
2019-01-21T00:59:50.349Z,1010.95
2019-01-21T01:00:50.292Z,1010.97
2019-01-21T01:01:50.297Z,1010.96
2019-01-21T01:02:50.241Z,1010.95
2019-01-21T01:03:50.228Z,1010.95
2019-01-21T01:04:50.220Z,1010.97
2019-01-21T01:05:50.223Z,1010.98
2019-01-21T01:06:50.189Z,1010.92
2019-01-21T01:07:50.193Z,1010.94
2019-01-21T01:08:50.174Z,1010.96
2019-01-21T01:09:50.180Z,1010.98
2019-01-21T01:10:50.171Z,1010.94
2019-01-21T01:11:50.139Z,1010.99
2019-01-21T01:12:50.128Z,1010.98
2019-01-21T01:13:50.132Z,1011.02
2019-01-21T01:14:50.101Z,1011.03
2019-01-21T01:15:50.125Z,1011.01
2019-01-21T01:16:50.871Z,1010.98
2019-01-21T01:17:50.100Z,1011.00
2019-01-21T01:18:50.087Z,1011.05
2019-01-21T01:19:50.092Z,1011.06
2019-01-21T01:20:50.161Z,1011.05
2019-01-21T01:21:50.060Z,1011.02
2019-01-21T01:22:50.138Z,1011.06
2019-01-21T01:23:49.999Z,1011.11
2019-01-21T01:24:49.997Z,1011.08
2019-01-21T01:25:50.029Z,1011.08
2019-01-21T01:26:50.010Z,1011.11
2019-01-21T01:27:49.977Z,1011.10
2019-01-21T01:28:49.944Z,1011.09
2019-01-21T01:29:49.938Z,1011.11
2019-01-21T01:30:49.931Z,1011.13
2019-01-21T01:31:49.933Z,1011.11
2019-01-21T01:32:49.903Z,1011.15
2019-01-21T01:33:49.896Z,1011.13
2019-01-21T01:34:49.878Z,1011.15
2019-01-21T01:35:49.883Z,1011.17
2019-01-21T01:36:49.859Z,1011.15
2019-01-21T01:37:49.847Z,1011.14
2019-01-21T01:38:49.847Z,1011.17
2019-01-21T01:39:49.822Z,1011.15
2019-01-21T01:40:49.830Z,1011.17
2019-01-21T01:41:49.826Z,1011.17
2019-01-21T01:42:49.793Z,1011.18
2019-01-21T01:43:49.782Z,1011.18
2019-01-21T01:44:49.777Z,1011.21
2019-01-21T01:45:49.759Z,1011.24
2019-01-21T01:46:49.784Z,1011.24
2019-01-21T01:47:49.735Z,1011.27
2019-01-21T01:48:49.732Z,1011.27
2019-01-21T01:49:49.715Z,1011.31
2019-01-21T01:50:49.712Z,1011.33
2019-01-21T01:51:49.736Z,1011.33
2019-01-21T01:52:49.686Z,1011.32
2019-01-21T01:53:49.670Z,1011.35
2019-01-21T01:54:49.660Z,1011.34
2019-01-21T01:55:49.659Z,1011.32
2019-01-21T01:56:49.671Z,1011.29
2019-01-21T01:57:49.632Z,1011.29
2019-01-21T01:58:52.871Z,1011.28
2019-01-21T01:59:49.611Z,1011.27
2019-01-21T02:00:49.592Z,1011.31
2019-01-21T02:01:49.977Z,1011.28
2019-01-21T02:02:49.580Z,1011.32
2019-01-21T02:03:49.631Z,1011.32
2019-01-21T02:04:49.550Z,1011.34
2019-01-21T02:05:49.535Z,1011.35
2019-01-21T02:06:49.593Z,1011.32
2019-01-21T02:07:49.522Z,1011.31
2019-01-21T02:08:49.508Z,1011.31
2019-01-21T02:09:49.498Z,1011.28
2019-01-21T02:10:49.482Z,1011.26
2019-01-21T02:11:49.513Z,1011.25
2019-01-21T02:12:49.499Z,1011.26
2019-01-21T02:13:49.486Z,1011.29
2019-01-21T02:14:49.470Z,1011.26
2019-01-21T02:15:49.504Z,1011.25
2019-01-21T02:16:49.453Z,1011.26
2019-01-21T02:17:52.117Z,1011.26
2019-01-21T02:18:49.423Z,1011.24
2019-01-21T02:19:49.420Z,1011.28
2019-01-21T02:20:49.410Z,1011.30
2019-01-21T02:21:49.462Z,1011.32
2019-01-21T02:22:49.390Z,1011.31
2019-01-21T02:23:49.393Z,1011.27
2019-01-21T02:24:49.341Z,1011.25
2019-01-21T02:25:49.358Z,1011.28
2019-01-21T02:26:49.404Z,1011.26
2019-01-21T02:27:49.331Z,1011.26
2019-01-21T02:28:49.288Z,1011.24
2019-01-21T02:29:49.282Z,1011.25
2019-01-21T02:30:49.322Z,1011.29
2019-01-21T02:31:49.285Z,1011.27
2019-01-21T02:32:49.240Z,1011.27
2019-01-21T02:33:49.246Z,1011.27
2019-01-21T02:34:49.281Z,1011.27
2019-01-21T02:35:49.242Z,1011.30
2019-01-21T02:36:49.244Z,1011.28
2019-01-21T02:37:49.189Z,1011.30
2019-01-21T02:38:49.171Z,1011.28
2019-01-21T02:39:49.172Z,1011.29
2019-01-21T02:40:49.157Z,1011.30
2019-01-21T02:41:49.257Z,1011.29
2019-01-21T02:42:49.131Z,1011.29
2019-01-21T02:43:49.122Z,1011.35
2019-01-21T02:44:49.114Z,1011.34
2019-01-21T02:45:49.102Z,1011.33
2019-01-21T02:46:49.129Z,1011.33
2019-01-21T02:47:49.078Z,1011.36
2019-01-21T02:48:49.110Z,1011.33
2019-01-21T02:49:49.056Z,1011.33
2019-01-21T02:50:49.045Z,1011.33
2019-01-21T02:51:49.061Z,1011.34
2019-01-21T02:52:49.041Z,1011.31
2019-01-21T02:53:49.023Z,1011.34
2019-01-21T02:54:49.057Z,1011.30
2019-01-21T02:55:48.988Z,1011.30
2019-01-21T02:56:49.009Z,1011.28
2019-01-21T02:57:48.965Z,1011.27
2019-01-21T02:58:48.952Z,1011.31
2019-01-21T02:59:48.968Z,1011.30
2019-01-21T03:00:48.931Z,1011.28
2019-01-21T03:01:48.921Z,1011.28
2019-01-21T03:02:48.910Z,1011.30
2019-01-21T03:03:48.896Z,1011.26
2019-01-21T03:04:48.889Z,1011.32
2019-01-21T03:05:48.888Z,1011.29
2019-01-21T03:06:48.866Z,1011.34
2019-01-21T03:07:48.982Z,1011.34
2019-01-21T03:08:48.859Z,1011.32
2019-01-21T03:09:48.832Z,1011.36
2019-01-21T03:10:48.817Z,1011.33
2019-01-21T03:11:48.816Z,1011.36
2019-01-21T03:12:48.823Z,1011.40
2019-01-21T03:13:48.784Z,1011.35
2019-01-21T03:14:48.773Z,1011.35
2019-01-21T03:15:48.766Z,1011.38
2019-01-21T03:16:48.743Z,1011.39
2019-01-21T03:17:48.849Z,1011.42
2019-01-21T03:18:48.771Z,1011.40
2019-01-21T03:19:48.788Z,1011.47
2019-01-21T03:20:48.758Z,1011.46
2019-01-21T03:21:48.734Z,1011.42
2019-01-21T03:22:48.787Z,1011.44
2019-01-21T03:23:48.711Z,1011.42
2019-01-21T03:24:48.667Z,1011.44
2019-01-21T03:25:48.690Z,1011.47
2019-01-21T03:26:48.927Z,1011.45
2019-01-21T03:27:48.726Z,1011.46
2019-01-21T03:28:48.632Z,1011.46
2019-01-21T03:29:48.622Z,1011.45
2019-01-21T03:30:48.632Z,1011.35
2019-01-21T03:31:48.591Z,1011.39
2019-01-21T03:32:48.631Z,1011.43
2019-01-21T03:33:48.605Z,1011.41
2019-01-21T03:34:48.589Z,1011.43
2019-01-21T03:35:48.559Z,1011.49
2019-01-21T03:36:48.550Z,1011.46
2019-01-21T03:37:48.554Z,1011.48
2019-01-21T03:38:48.517Z,1011.50
2019-01-21T03:39:48.505Z,1011.50
2019-01-21T03:40:48.487Z,1011.55
2019-01-21T03:41:48.482Z,1011.56
2019-01-21T03:42:48.498Z,1011.53
2019-01-21T03:43:48.464Z,1011.54
2019-01-21T03:44:51.456Z,1011.51
2019-01-21T03:45:48.493Z,1011.48
2019-01-21T03:46:48.433Z,1011.50
2019-01-21T03:47:48.443Z,1011.47
2019-01-21T03:48:48.402Z,1011.52
2019-01-21T03:49:48.394Z,1011.51
2019-01-21T03:50:48.377Z,1011.55
2019-01-21T03:51:48.368Z,1011.57
2019-01-21T03:52:48.386Z,1011.63
2019-01-21T03:53:48.361Z,1011.63
2019-01-21T03:54:48.333Z,1011.62
2019-01-21T03:55:48.320Z,1011.67
2019-01-21T03:56:48.335Z,1011.71
2019-01-21T03:57:48.342Z,1011.68
2019-01-21T03:58:48.296Z,1011.68
2019-01-21T03:59:48.548Z,1011.65
2019-01-21T04:00:48.268Z,1011.68
2019-01-21T04:01:48.253Z,1011.65
2019-01-21T04:02:48.273Z,1011.65
2019-01-21T04:03:48.233Z,1011.67
2019-01-21T04:04:48.221Z,1011.68
2019-01-21T04:05:48.219Z,1011.70
2019-01-21T04:06:48.200Z,1011.68
2019-01-21T04:07:48.625Z,1011.69
2019-01-21T04:08:48.180Z,1011.65
2019-01-21T04:09:48.171Z,1011.62
2019-01-21T04:10:48.162Z,1011.63
2019-01-21T04:11:48.144Z,1011.64
2019-01-21T04:12:48.206Z,1011.65
2019-01-21T04:13:48.133Z,1011.69
2019-01-21T04:14:48.114Z,1011.66
2019-01-21T04:15:48.104Z,1011.68
2019-01-21T04:16:48.092Z,1011.65
2019-01-21T04:17:48.256Z,1011.64
2019-01-21T04:18:48.108Z,1011.63
2019-01-21T04:19:48.091Z,1011.62
2019-01-21T04:20:48.089Z,1011.66
2019-01-21T04:21:48.077Z,1011.64
2019-01-21T04:22:48.135Z,1011.62
2019-01-21T04:23:48.045Z,1011.64
2019-01-21T04:24:48.006Z,1011.62
2019-01-21T04:25:48.031Z,1011.63
2019-01-21T04:26:48.014Z,1011.57
2019-01-21T04:27:48.068Z,1011.57
2019-01-21T04:28:47.965Z,1011.59
2019-01-21T04:29:47.948Z,1011.56
2019-01-21T04:30:47.937Z,1011.60
2019-01-21T04:31:47.940Z,1011.59
2019-01-21T04:32:47.946Z,1011.58
2019-01-21T04:33:47.914Z,1011.58
2019-01-21T04:34:47.889Z,1011.55
2019-01-21T04:35:47.880Z,1011.54
2019-01-21T04:36:47.868Z,1011.58
2019-01-21T04:37:47.860Z,1011.57
2019-01-21T04:38:47.866Z,1011.59
2019-01-21T04:39:47.840Z,1011.55
2019-01-21T04:40:47.844Z,1011.60
2019-01-21T04:41:47.816Z,1011.60
2019-01-21T04:42:47.804Z,1011.62
2019-01-21T04:43:47.915Z,1011.60
2019-01-21T04:44:47.781Z,1011.55
2019-01-21T04:45:47.768Z,1011.58
2019-01-21T04:46:47.764Z,1011.60
2019-01-21T04:47:47.754Z,1011.59
2019-01-21T04:48:47.774Z,1011.56
2019-01-21T04:49:47.726Z,1011.57
2019-01-21T04:50:47.711Z,1011.57
2019-01-21T04:51:48.340Z,1011.58
2019-01-21T04:52:47.699Z,1011.55
2019-01-21T04:53:47.710Z,1011.54
2019-01-21T04:54:47.677Z,1011.56
2019-01-21T04:55:47.675Z,1011.56
2019-01-21T04:56:47.652Z,1011.51
2019-01-21T04:57:47.648Z,1011.46
2019-01-21T04:58:47.664Z,1011.50
2019-01-21T04:59:47.622Z,1011.48
2019-01-21T05:00:47.613Z,1011.43
2019-01-21T05:01:47.649Z,1011.45
2019-01-21T05:02:47.585Z,1011.42
2019-01-21T05:03:47.600Z,1011.44
2019-01-21T05:04:47.563Z,1011.43
2019-01-21T05:05:47.570Z,1011.41
2019-01-21T05:06:47.569Z,1011.42
2019-01-21T05:07:47.589Z,1011.42
2019-01-21T05:08:47.542Z,1011.40
2019-01-21T05:09:47.597Z,1011.41
2019-01-21T05:10:47.577Z,1011.41
2019-01-21T05:11:47.483Z,1011.36
2019-01-21T05:12:47.472Z,1011.40
2019-01-21T05:13:47.532Z,1011.43
2019-01-21T05:14:47.454Z,1011.41
2019-01-21T05:15:47.463Z,1011.43
2019-01-21T05:16:47.449Z,1011.42
2019-01-21T05:17:47.461Z,1011.42
2019-01-21T05:18:47.511Z,1011.43
2019-01-21T05:19:47.542Z,1011.45
2019-01-21T05:20:47.415Z,1011.44
2019-01-21T05:21:47.409Z,1011.43
2019-01-21T05:22:47.393Z,1011.43
2019-01-21T05:23:47.475Z,1011.47
2019-01-21T05:24:47.340Z,1011.46
2019-01-21T05:25:47.369Z,1011.45
2019-01-21T05:26:47.346Z,1011.45
2019-01-21T05:27:47.338Z,1011.46
2019-01-21T05:28:47.337Z,1011.50
2019-01-21T05:29:47.326Z,1011.51
2019-01-21T05:30:47.271Z,1011.51
2019-01-21T05:31:47.258Z,1011.50
2019-01-21T05:32:47.274Z,1011.49
2019-01-21T05:33:47.261Z,1011.47
2019-01-21T05:34:47.233Z,1011.53
2019-01-21T05:35:47.218Z,1011.51
2019-01-21T05:36:47.207Z,1011.51
2019-01-21T05:37:47.197Z,1011.47
2019-01-21T05:38:47.231Z,1011.47
2019-01-21T05:39:47.184Z,1011.51
2019-01-21T05:40:47.204Z,1011.50
2019-01-21T05:41:47.158Z,1011.51
2019-01-21T05:42:47.147Z,1011.56
2019-01-21T05:43:47.369Z,1011.52
2019-01-21T05:44:47.128Z,1011.54
2019-01-21T05:45:47.118Z,1011.55
2019-01-21T05:46:47.099Z,1011.55
2019-01-21T05:47:47.094Z,1011.54
2019-01-21T05:48:48.996Z,1011.53
2019-01-21T05:49:47.066Z,1011.54
2019-01-21T05:50:47.052Z,1011.52
2019-01-21T05:51:47.082Z,1011.52
2019-01-21T05:52:47.030Z,1011.57
2019-01-21T05:53:47.100Z,1011.58
2019-01-21T05:54:47.025Z,1011.59
2019-01-21T05:55:46.998Z,1011.61
2019-01-21T05:56:47.029Z,1011.64
2019-01-21T05:57:46.986Z,1011.66
2019-01-21T05:58:46.981Z,1011.62
2019-01-21T05:59:46.955Z,1011.61
2019-01-21T06:00:47.033Z,1011.64
2019-01-21T06:01:46.942Z,1011.64
2019-01-21T06:02:46.927Z,1011.62
2019-01-21T06:03:46.916Z,1011.62
2019-01-21T06:04:46.906Z,1011.62
2019-01-21T06:05:46.885Z,1011.62
2019-01-21T06:06:46.875Z,1011.64
2019-01-21T06:07:46.914Z,1011.61
2019-01-21T06:08:46.891Z,1011.62
2019-01-21T06:09:46.875Z,1011.64
2019-01-21T06:10:46.868Z,1011.66
2019-01-21T06:11:46.818Z,1011.70
2019-01-21T06:12:46.834Z,1011.67
2019-01-21T06:13:46.805Z,1011.68
2019-01-21T06:14:46.857Z,1011.72
2019-01-21T06:15:46.794Z,1011.73
2019-01-21T06:16:46.772Z,1011.71
2019-01-21T06:17:46.798Z,1011.75
2019-01-21T06:18:46.790Z,1011.80
2019-01-21T06:19:46.841Z,1011.76
2019-01-21T06:20:46.796Z,1011.78
2019-01-21T06:21:46.760Z,1011.78
2019-01-21T06:22:47.105Z,1011.79
2019-01-21T06:23:46.725Z,1011.80
2019-01-21T06:24:47.493Z,1011.79
2019-01-21T06:25:46.739Z,1011.78
2019-01-21T06:26:46.694Z,1011.76
2019-01-21T06:27:46.677Z,1011.73
2019-01-21T06:28:46.649Z,1011.74
2019-01-21T06:29:46.629Z,1011.72
2019-01-21T06:30:46.649Z,1011.70
2019-01-21T06:31:46.604Z,1011.66
2019-01-21T06:32:46.587Z,1011.68
2019-01-21T06:33:46.715Z,1011.68
2019-01-21T06:34:46.573Z,1011.71
2019-01-21T06:35:46.590Z,1011.72
2019-01-21T06:36:46.544Z,1011.70
2019-01-21T06:37:46.545Z,1011.69
2019-01-21T06:38:46.577Z,1011.71
2019-01-21T06:39:46.518Z,1011.73
2019-01-21T06:40:46.532Z,1011.75
2019-01-21T06:41:46.490Z,1011.74
2019-01-21T06:42:46.502Z,1011.71
2019-01-21T06:43:46.492Z,1011.73
2019-01-21T06:44:47.400Z,1011.75
2019-01-21T06:45:46.477Z,1011.73
2019-01-21T06:46:46.461Z,1011.78
2019-01-21T06:47:46.430Z,1011.74
2019-01-21T06:48:46.431Z,1011.76
2019-01-21T06:49:46.419Z,1011.71
2019-01-21T06:50:46.420Z,1011.79
2019-01-21T06:51:46.393Z,1011.76
2019-01-21T06:52:46.371Z,1011.80
2019-01-21T06:53:46.377Z,1011.80
2019-01-21T06:54:46.377Z,1011.85
2019-01-21T06:55:46.368Z,1011.85
2019-01-21T06:56:47.544Z,1011.90
2019-01-21T06:57:46.345Z,1011.89
2019-01-21T06:58:46.301Z,1011.90
2019-01-21T06:59:46.290Z,1011.88
2019-01-21T07:00:46.360Z,1011.92
2019-01-21T07:01:46.394Z,1011.97
2019-01-21T07:02:46.268Z,1011.98
2019-01-21T07:03:46.253Z,1012.03
2019-01-21T07:04:46.259Z,1012.03
2019-01-21T07:05:46.288Z,1012.02
2019-01-21T07:06:46.244Z,1011.98
2019-01-21T07:07:46.205Z,1011.98
2019-01-21T07:08:46.194Z,1011.97
2019-01-21T07:09:46.186Z,1011.97
2019-01-21T07:10:46.215Z,1011.99
2019-01-21T07:11:48.154Z,1012.00
2019-01-21T07:12:46.150Z,1012.02
2019-01-21T07:13:46.168Z,1012.05
2019-01-21T07:14:46.138Z,1012.02
2019-01-21T07:15:46.148Z,1011.99
2019-01-21T07:16:46.125Z,1012.01
2019-01-21T07:17:46.148Z,1012.02
2019-01-21T07:18:46.115Z,1012.01
2019-01-21T07:19:46.294Z,1012.01
2019-01-21T07:20:46.097Z,1011.97
2019-01-21T07:21:46.091Z,1012.05
2019-01-21T07:22:46.084Z,1012.03
2019-01-21T07:23:46.061Z,1012.07
2019-01-21T07:24:46.052Z,1012.03
2019-01-21T07:25:46.050Z,1012.05
2019-01-21T07:26:46.020Z,1012.02
2019-01-21T07:27:46.016Z,1012.03
2019-01-21T07:28:46.390Z,1012.07
2019-01-21T07:29:47.156Z,1012.03
2019-01-21T07:30:46.114Z,1012.04
2019-01-21T07:31:45.988Z,1012.08
2019-01-21T07:32:45.972Z,1012.07
2019-01-21T07:33:45.935Z,1012.07
2019-01-21T07:34:45.912Z,1012.06
2019-01-21T07:35:45.985Z,1012.13
2019-01-21T07:36:45.888Z,1012.09
2019-01-21T07:37:45.922Z,1012.03
2019-01-21T07:38:45.873Z,1012.04
2019-01-21T07:39:45.848Z,1012.04
2019-01-21T07:40:45.884Z,1012.05
2019-01-21T07:41:45.862Z,1012.06
2019-01-21T07:42:45.847Z,1012.08
2019-01-21T07:43:45.807Z,1012.10
2019-01-21T07:44:45.837Z,1012.07
2019-01-21T07:45:45.787Z,1012.09
2019-01-21T07:46:45.802Z,1012.05
2019-01-21T07:47:45.775Z,1012.09
2019-01-21T07:48:45.804Z,1012.01
2019-01-21T07:49:45.772Z,1012.05
2019-01-21T07:50:45.747Z,1012.02
2019-01-21T07:51:45.779Z,1012.06
2019-01-21T07:52:45.722Z,1012.09
2019-01-21T07:53:45.711Z,1012.02
2019-01-21T07:54:45.689Z,1012.03
2019-01-21T07:55:55.719Z,1011.98
2019-01-21T07:56:45.713Z,1011.94
2019-01-21T07:57:45.672Z,1011.93
2019-01-21T07:58:45.678Z,1011.96
2019-01-21T07:59:45.729Z,1011.95
2019-01-21T08:00:45.652Z,1011.95
2019-01-21T08:01:45.636Z,1011.98
2019-01-21T08:02:45.616Z,1011.98
2019-01-21T08:03:45.644Z,1012.02
2019-01-21T08:04:45.632Z,1011.97
2019-01-21T08:05:45.575Z,1011.96
2019-01-21T08:06:45.709Z,1011.94
2019-01-21T08:07:46.780Z,1011.90
2019-01-21T08:08:45.560Z,1011.89
2019-01-21T08:09:45.532Z,1011.88
2019-01-21T08:10:45.553Z,1011.87
2019-01-21T08:11:45.554Z,1011.87
2019-01-21T08:12:45.514Z,1011.87
2019-01-21T08:13:45.919Z,1011.92
2019-01-21T08:14:45.606Z,1011.92
2019-01-21T08:15:45.461Z,1011.94
2019-01-21T08:16:45.466Z,1011.93
2019-01-21T08:17:45.682Z,1011.94
2019-01-21T08:18:45.513Z,1012.00
2019-01-21T08:19:45.481Z,1012.09
2019-01-21T08:20:45.432Z,1012.05
2019-01-21T08:21:45.506Z,1012.09
2019-01-21T08:22:45.416Z,1012.07
2019-01-21T08:23:45.505Z,1012.16
2019-01-21T08:24:45.411Z,1012.16
2019-01-21T08:25:45.385Z,1012.22
2019-01-21T08:26:45.425Z,1012.27
2019-01-21T08:27:45.388Z,1012.28
2019-01-21T08:28:45.375Z,1012.26
2019-01-21T08:29:45.376Z,1012.27
2019-01-21T08:30:45.338Z,1012.25
2019-01-21T08:31:45.448Z,1012.25
2019-01-21T08:32:45.315Z,1012.27
2019-01-21T08:33:45.294Z,1012.24
2019-01-21T08:34:45.330Z,1012.26
2019-01-21T08:35:45.269Z,1012.27
2019-01-21T08:36:45.511Z,1012.21
2019-01-21T08:37:45.279Z,1012.22
2019-01-21T08:38:46.307Z,1012.25
2019-01-21T08:39:48.697Z,1012.25
2019-01-21T08:40:45.302Z,1012.28
2019-01-21T08:41:45.239Z,1012.23
2019-01-21T08:42:45.200Z,1012.24
2019-01-21T08:43:45.162Z,1012.22
2019-01-21T08:44:45.964Z,1012.25
2019-01-21T08:45:45.545Z,1012.23
2019-01-21T08:46:45.601Z,1012.22
2019-01-21T08:47:46.426Z,1012.23
2019-01-21T08:48:45.907Z,1012.23
2019-01-21T08:49:45.369Z,1012.22
2019-01-21T08:50:45.122Z,1012.19
2019-01-21T08:51:45.106Z,1012.21
2019-01-21T08:52:45.087Z,1012.19
2019-01-21T08:53:45.085Z,1012.16
2019-01-21T08:54:45.078Z,1012.19
2019-01-21T08:55:45.063Z,1012.23
2019-01-21T08:56:48.307Z,1012.24
2019-01-21T08:57:44.992Z,1012.27
2019-01-21T08:58:44.983Z,1012.35
2019-01-21T08:59:44.986Z,1012.35
2019-01-21T09:00:44.963Z,1012.37
2019-01-21T09:01:44.948Z,1012.37
2019-01-21T09:02:44.963Z,1012.34
2019-01-21T09:03:44.929Z,1012.33
2019-01-21T09:04:44.962Z,1012.44
2019-01-21T09:05:44.924Z,1012.34
2019-01-21T09:06:44.895Z,1012.39
2019-01-21T09:07:44.924Z,1012.37
2019-01-21T09:08:44.891Z,1012.41
2019-01-21T09:09:44.881Z,1012.37
2019-01-21T09:10:44.863Z,1012.43
2019-01-21T09:11:44.842Z,1012.43
2019-01-21T09:12:44.855Z,1012.42
2019-01-21T09:13:44.839Z,1012.45
2019-01-21T09:14:44.823Z,1012.49
2019-01-21T09:15:47.497Z,1012.48
2019-01-21T09:16:44.816Z,1012.44
2019-01-21T09:17:44.916Z,1012.48
2019-01-21T09:18:45.005Z,1012.44
2019-01-21T09:19:45.027Z,1012.46
2019-01-21T09:20:44.897Z,1012.50
2019-01-21T09:21:45.204Z,1012.47
2019-01-21T09:22:45.929Z,1012.49
2019-01-21T09:23:46.469Z,1012.48
2019-01-21T09:24:46.328Z,1012.51
2019-01-21T09:25:45.985Z,1012.53
2019-01-21T09:26:45.178Z,1012.49
2019-01-21T09:27:45.226Z,1012.49
2019-01-21T09:28:45.064Z,1012.52
2019-01-21T09:29:45.082Z,1012.50
2019-01-21T09:30:45.292Z,1012.47
2019-01-21T09:31:44.908Z,1012.48
2019-01-21T09:32:44.912Z,1012.48
2019-01-21T09:33:44.956Z,1012.48
2019-01-21T09:34:46.018Z,1012.50
2019-01-21T09:35:45.524Z,1012.58
2019-01-21T09:36:45.475Z,1012.58
2019-01-21T09:37:44.962Z,1012.59
2019-01-21T09:38:45.580Z,1012.60
2019-01-21T09:39:45.995Z,1012.62
2019-01-21T09:40:45.316Z,1012.65
2019-01-21T09:41:44.968Z,1012.69
2019-01-21T09:42:44.583Z,1012.72
2019-01-21T09:43:44.637Z,1012.72
2019-01-21T09:44:44.523Z,1012.73
2019-01-21T09:45:44.497Z,1012.79
2019-01-21T09:46:44.463Z,1012.81
2019-01-21T09:47:44.523Z,1012.79
2019-01-21T09:48:44.474Z,1012.81
2019-01-21T09:49:44.430Z,1012.81
2019-01-21T09:50:44.466Z,1012.81
2019-01-21T09:51:44.446Z,1012.83
2019-01-21T09:52:44.388Z,1012.84
2019-01-21T09:53:44.403Z,1012.83
2019-01-21T09:54:49.676Z,1012.85
2019-01-21T09:55:44.949Z,1012.82
2019-01-21T09:56:44.388Z,1012.79
2019-01-21T09:57:44.371Z,1012.77
2019-01-21T09:58:44.384Z,1012.77
2019-01-21T09:59:44.391Z,1012.81
2019-01-21T10:00:44.349Z,1012.80
2019-01-21T10:01:44.326Z,1012.80
2019-01-21T10:02:44.319Z,1012.78
2019-01-21T10:03:44.303Z,1012.77
2019-01-21T10:04:44.334Z,1012.70
2019-01-21T10:05:44.268Z,1012.71
2019-01-21T10:06:47.347Z,1012.69
2019-01-21T10:07:44.286Z,1012.70
2019-01-21T10:08:44.304Z,1012.74
2019-01-21T10:09:44.322Z,1012.72
2019-01-21T10:10:44.195Z,1012.75
2019-01-21T10:11:44.197Z,1012.73
2019-01-21T10:12:44.191Z,1012.70
2019-01-21T10:13:44.567Z,1012.61
2019-01-21T10:14:44.162Z,1012.59
2019-01-21T10:15:44.414Z,1012.58
2019-01-21T10:16:44.136Z,1012.55
2019-01-21T10:17:44.172Z,1012.52
2019-01-21T10:18:44.816Z,1012.55
2019-01-21T10:19:50.347Z,1012.57
2019-01-21T10:20:44.179Z,1012.47
2019-01-21T10:21:44.735Z,1012.43
2019-01-21T10:22:44.213Z,1012.40
2019-01-21T10:23:44.106Z,1012.39
2019-01-21T10:24:44.076Z,1012.41
2019-01-21T10:25:44.081Z,1012.43
2019-01-21T10:26:45.663Z,1012.39
2019-01-21T10:27:44.065Z,1012.43
2019-01-21T10:28:44.049Z,1012.41
2019-01-21T10:29:44.053Z,1012.39
2019-01-21T10:30:44.136Z,1012.36
2019-01-21T10:31:44.068Z,1012.38
2019-01-21T10:32:44.001Z,1012.34
2019-01-21T10:33:43.983Z,1012.34
2019-01-21T10:34:43.965Z,1012.36
2019-01-21T10:35:43.932Z,1012.32
2019-01-21T10:36:43.952Z,1012.30
2019-01-21T10:37:43.894Z,1012.33
2019-01-21T10:38:43.911Z,1012.34
2019-01-21T10:39:44.404Z,1012.32
2019-01-21T10:40:43.868Z,1012.19
2019-01-21T10:41:43.844Z,1012.19
2019-01-21T10:42:43.832Z,1012.15
2019-01-21T10:43:43.975Z,1012.14
2019-01-21T10:44:43.835Z,1012.13
2019-01-21T10:45:43.825Z,1012.15
2019-01-21T10:46:44.024Z,1012.15
2019-01-21T10:47:43.796Z,1012.15
2019-01-21T10:48:43.792Z,1012.11
2019-01-21T10:49:43.770Z,1012.09
2019-01-21T10:50:43.764Z,1012.11
2019-01-21T10:51:43.735Z,1012.14
2019-01-21T10:52:43.821Z,1012.15
2019-01-21T10:53:43.722Z,1012.10
2019-01-21T10:54:45.063Z,1012.09
2019-01-21T10:55:43.862Z,1012.08
2019-01-21T10:56:43.698Z,1012.12
2019-01-21T10:57:43.677Z,1012.11
2019-01-21T10:58:43.678Z,1012.14
2019-01-21T10:59:43.775Z,1012.07
2019-01-21T11:00:44.517Z,1012.15
2019-01-21T11:01:43.648Z,1012.16
2019-01-21T11:02:43.840Z,1012.14
2019-01-21T11:03:43.657Z,1012.11
2019-01-21T11:04:43.714Z,1012.07
2019-01-21T11:05:43.608Z,1012.11
2019-01-21T11:06:43.709Z,1012.06
2019-01-21T11:07:43.863Z,1012.04
2019-01-21T11:08:43.869Z,1012.05
2019-01-21T11:09:44.072Z,1012.03
2019-01-21T11:10:44.703Z,1012.03
2019-01-21T11:11:43.652Z,1012.01
2019-01-21T11:12:43.573Z,1012.03
2019-01-21T11:13:44.403Z,1011.94
2019-01-21T11:14:43.994Z,1011.95
2019-01-21T11:15:43.578Z,1011.92
2019-01-21T11:16:44.045Z,1011.85
2019-01-21T11:17:44.749Z,1011.91
2019-01-21T11:18:44.571Z,1011.90
2019-01-21T11:19:44.552Z,1011.95
2019-01-21T11:20:43.497Z,1011.94
2019-01-21T11:21:44.893Z,1011.92
2019-01-21T11:22:43.505Z,1011.89
2019-01-21T11:23:43.484Z,1011.88
2019-01-21T11:24:43.612Z,1011.88
2019-01-21T11:25:43.422Z,1011.78
2019-01-21T11:26:43.503Z,1011.75
2019-01-21T11:27:43.406Z,1011.76
2019-01-21T11:28:43.382Z,1011.75
2019-01-21T11:29:43.487Z,1011.75
2019-01-21T11:30:43.321Z,1011.80
2019-01-21T11:31:43.498Z,1011.79
2019-01-21T11:32:44.050Z,1011.79
2019-01-21T11:33:43.324Z,1011.80
2019-01-21T11:34:43.587Z,1011.76
2019-01-21T11:35:43.370Z,1011.72
2019-01-21T11:36:43.339Z,1011.67
2019-01-21T11:37:43.389Z,1011.64
2019-01-21T11:38:43.363Z,1011.63
2019-01-21T11:39:43.822Z,1011.65
2019-01-21T11:40:43.352Z,1011.62
2019-01-21T11:41:43.215Z,1011.66
2019-01-21T11:42:43.347Z,1011.59
2019-01-21T11:43:43.179Z,1011.58
2019-01-21T11:44:43.196Z,1011.64
2019-01-21T11:45:44.175Z,1011.60
2019-01-21T11:46:43.161Z,1011.57
2019-01-21T11:47:43.135Z,1011.57
2019-01-21T11:48:43.338Z,1011.54
2019-01-21T11:49:43.226Z,1011.48
2019-01-21T11:50:43.327Z,1011.52
2019-01-21T11:51:43.132Z,1011.51
2019-01-21T11:52:43.114Z,1011.48
2019-01-21T11:53:43.115Z,1011.46
2019-01-21T11:54:43.094Z,1011.45
2019-01-21T11:55:43.044Z,1011.46
2019-01-21T11:56:43.031Z,1011.44
2019-01-21T11:57:43.013Z,1011.38
2019-01-21T11:58:47.588Z,1011.41
2019-01-21T11:59:43.441Z,1011.37
2019-01-21T12:00:42.995Z,1011.40
2019-01-21T12:01:42.981Z,1011.36
2019-01-21T12:02:46.590Z,1011.38
2019-01-21T12:03:42.956Z,1011.32
2019-01-21T12:04:42.994Z,1011.29
2019-01-21T12:05:42.945Z,1011.31